SWR52A LSZH-KBOS
Flight info
| Callsign | SWR52A |
|---|---|
| Flight time | N/A |
| Altitude | 34000 |
| Route | VEBIT T10 TORPA DCT REKLA DCT RLP DCT ROTSI DCT KOTUN DCT AMAXA DCT VESAN DCT RATUK DCT SOVAT/N0478F380 L613 SANDY L722 ICTAM T421 DIDZA DCT CESQA DCT BIBPE DCT OKTAD DCT MEDOG DCT PEMOB DCT BAKUR DCT NEBIN/M084F380 DCT 54N020W 5430N03000W 5430N04000W 5230N05000W DCT SAXAN/N0483F380 N550A TOPPS DCT AJJAY OOSHN5 |
| Aircraft | A359/H-SDE2E3GHIJ3J4J5LM1ORWXY/LB1D1 |
Departure
| Time | 2026-04-26 07:17 |
|---|---|
| Airport | Zürich Airport (LSZH) |
Arrival
| Time | N/A |
|---|---|
| Airport | Boston Logan International Airport (KBOS) |
| Time | Latitude | Longitude | Altitude | Speed | Heading |
|---|---|---|---|---|---|
| 2026-04-26 06:56 | 47.46061 | 8.55337 | 1403 ft | 0 kts | 6° |
| 2026-04-26 07:02 | 47.46046 | 8.55335 | 1411 ft | 4 kts | 6° |
| 2026-04-26 07:02 | 47.46011 | 8.55329 | 1409 ft | 3 kts | 6° |
| 2026-04-26 07:03 | 47.45989 | 8.55329 | 1412 ft | 4 kts | 329° |
| 2026-04-26 07:03 | 47.45978 | 8.55345 | 1413 ft | 4 kts | 291° |
| 2026-04-26 07:03 | 47.45972 | 8.55384 | 1410 ft | 4 kts | 274° |
| 2026-04-26 07:03 | 47.45971 | 8.55415 | 1409 ft | 1 kts | 276° |
| 2026-04-26 07:06 | 47.45975 | 8.55361 | 1413 ft | 15 kts | 276° |
| 2026-04-26 07:06 | 47.45989 | 8.55163 | 1408 ft | 22 kts | 276° |
| 2026-04-26 07:06 | 47.46003 | 8.54989 | 1404 ft | 14 kts | 284° |
| 2026-04-26 07:07 | 47.46099 | 8.54887 | 1406 ft | 21 kts | 335° |
| 2026-04-26 07:07 | 47.46250 | 8.54782 | 1402 ft | 27 kts | 335° |
| 2026-04-26 07:07 | 47.46419 | 8.54666 | 1397 ft | 23 kts | 335° |
| 2026-04-26 07:07 | 47.46578 | 8.54557 | 1406 ft | 27 kts | 335° |
| 2026-04-26 07:08 | 47.46746 | 8.54445 | 1385 ft | 23 kts | 338° |
| 2026-04-26 07:08 | 47.46913 | 8.54341 | 1386 ft | 27 kts | 335° |
| 2026-04-26 07:08 | 47.47072 | 8.54231 | 1395 ft | 27 kts | 335° |
| 2026-04-26 07:08 | 47.47235 | 8.54119 | 1402 ft | 26 kts | 335° |
| 2026-04-26 07:09 | 47.47411 | 8.53997 | 1402 ft | 29 kts | 335° |
| 2026-04-26 07:09 | 47.47570 | 8.53888 | 1410 ft | 19 kts | 335° |
| 2026-04-26 07:09 | 47.47676 | 8.53815 | 1412 ft | 13 kts | 333° |
| 2026-04-26 07:09 | 47.47699 | 8.53721 | 1416 ft | 11 kts | 241° |
| 2026-04-26 07:10 | 47.47487 | 8.53652 | 1411 ft | 0 kts | 154° |
| 2026-04-26 07:14 | 47.47476 | 8.53660 | 1409 ft | 13 kts | 154° |
| 2026-04-26 07:15 | 47.47405 | 8.53710 | 1409 ft | 0 kts | 155° |
| 2026-04-26 07:16 | 47.47279 | 8.53797 | 1406 ft | 53 kts | 155° |
| 2026-04-26 07:17 | 47.46732 | 8.54172 | 1382 ft | 118 kts | 155° |
| 2026-04-26 07:17 | 47.45816 | 8.54804 | 1407 ft | 171 kts | 155° |
| 2026-04-26 07:17 | 47.44664 | 8.55587 | 1888 ft | 180 kts | 155° |
| 2026-04-26 07:17 | 47.43577 | 8.56350 | 2839 ft | 167 kts | 146° |
| 2026-04-26 07:18 | 47.42871 | 8.57645 | 3229 ft | 169 kts | 103° |
| 2026-04-26 07:18 | 47.43090 | 8.59337 | 3526 ft | 181 kts | 54° |
| 2026-04-26 07:18 | 47.44218 | 8.60252 | 3789 ft | 202 kts | 8° |
| 2026-04-26 07:18 | 47.45627 | 8.59638 | 4108 ft | 225 kts | 329° |
| 2026-04-26 07:19 | 47.46949 | 8.58343 | 4724 ft | 230 kts | 325° |
| 2026-04-26 07:19 | 47.47843 | 8.56400 | 5331 ft | 235 kts | 283° |
| 2026-04-26 07:19 | 47.47666 | 8.54048 | 5987 ft | 234 kts | 240° |
| 2026-04-26 07:19 | 47.46545 | 8.52283 | 6420 ft | 247 kts | 207° |
| 2026-04-26 07:20 | 47.44943 | 8.51149 | 6700 ft | 267 kts | 211° |
| 2026-04-26 07:20 | 47.43639 | 8.49187 | 7249 ft | 272 kts | 240° |
| 2026-04-26 07:20 | 47.42917 | 8.46586 | 7900 ft | 277 kts | 251° |
| 2026-04-26 07:20 | 47.42228 | 8.43901 | 8608 ft | 282 kts | 247° |
| 2026-04-26 07:21 | 47.41380 | 8.41274 | 9368 ft | 285 kts | 244° |
| 2026-04-26 07:21 | 47.40450 | 8.38664 | 10129 ft | 290 kts | 243° |
| 2026-04-26 07:21 | 47.39471 | 8.36018 | 10641 ft | 301 kts | 242° |
| 2026-04-26 07:21 | 47.38426 | 8.33227 | 10974 ft | 319 kts | 243° |
| 2026-04-26 07:22 | 47.37370 | 8.30249 | 11297 ft | 337 kts | 244° |
| 2026-04-26 07:22 | 47.36289 | 8.27148 | 11718 ft | 349 kts | 245° |
| 2026-04-26 07:22 | 47.35163 | 8.23949 | 12381 ft | 354 kts | 245° |